sensor_id;sensor_type;location;lat;lon;timestamp;P1;durP1;ratioP1;P2;durP2;ratioP2
5776;SDS011;2914;42.668;23.346;2022-11-14T00:02:08;63.00;;;30.93;;
5776;SDS011;2914;42.668;23.346;2022-11-14T00:04:37;72.63;;;34.27;;
5776;SDS011;2914;42.668;23.346;2022-11-14T00:07:06;71.17;;;32.63;;
5776;SDS011;2914;42.668;23.346;2022-11-14T00:09:35;70.37;;;32.37;;
5776;SDS011;2914;42.668;23.346;2022-11-14T00:12:06;52.10;;;23.70;;
5776;SDS011;2914;42.668;23.346;2022-11-14T00:14:36;55.50;;;23.17;;
5776;SDS011;2914;42.668;23.346;2022-11-14T00:17:05;48.50;;;20.10;;
5776;SDS011;2914;42.668;23.346;2022-11-14T00:19:35;35.97;;;18.47;;
5776;SDS011;2914;42.668;23.346;2022-11-14T00:22:04;40.57;;;21.33;;
5776;SDS011;2914;42.668;23.346;2022-11-14T00:24:33;51.13;;;21.33;;
5776;SDS011;2914;42.668;23.346;2022-11-14T00:27:02;54.47;;;27.03;;
5776;SDS011;2914;42.668;23.346;2022-11-14T00:29:31;43.07;;;20.93;;
5776;SDS011;2914;42.668;23.346;2022-11-14T00:32:01;48.13;;;21.90;;
5776;SDS011;2914;42.668;23.346;2022-11-14T00:34:30;71.00;;;29.93;;
5776;SDS011;2914;42.668;23.346;2022-11-14T00:37:00;56.43;;;24.33;;
5776;SDS011;2914;42.668;23.346;2022-11-14T00:42:08;56.33;;;29.60;;
5776;SDS011;2914;42.668;23.346;2022-11-14T00:44:37;48.10;;;25.63;;
5776;SDS011;2914;42.668;23.346;2022-11-14T00:47:07;45.67;;;23.00;;
5776;SDS011;2914;42.668;23.346;2022-11-14T00:49:39;67.87;;;26.83;;
5776;SDS011;2914;42.668;23.346;2022-11-14T00:52:14;64.90;;;30.70;;
5776;SDS011;2914;42.668;23.346;2022-11-14T00:54:46;53.13;;;26.80;;
5776;SDS011;2914;42.668;23.346;2022-11-14T00:57:15;53.20;;;27.53;;
5776;SDS011;2914;42.668;23.346;2022-11-14T00:59:44;50.13;;;26.57;;
5776;SDS011;2914;42.668;23.346;2022-11-14T01:02:13;48.27;;;24.73;;
5776;SDS011;2914;42.668;23.346;2022-11-14T01:04:42;45.10;;;24.40;;
5776;SDS011;2914;42.668;23.346;2022-11-14T01:07:11;52.03;;;27.30;;
5776;SDS011;2914;42.668;23.346;2022-11-14T01:09:40;67.50;;;28.63;;
5776;SDS011;2914;42.668;23.346;2022-11-14T01:12:09;53.63;;;27.10;;
5776;SDS011;2914;42.668;23.346;2022-11-14T01:14:38;57.20;;;27.67;;
5776;SDS011;2914;42.668;23.346;2022-11-14T01:17:08;61.30;;;29.07;;
5776;SDS011;2914;42.668;23.346;2022-11-14T01:19:37;64.43;;;28.00;;
5776;SDS011;2914;42.668;23.346;2022-11-14T01:22:06;54.03;;;24.50;;
5776;SDS011;2914;42.668;23.346;2022-11-14T01:24:36;57.17;;;24.90;;
5776;SDS011;2914;42.668;23.346;2022-11-14T01:27:05;49.30;;;25.13;;
5776;SDS011;2914;42.668;23.346;2022-11-14T01:29:33;50.70;;;23.83;;
5776;SDS011;2914;42.668;23.346;2022-11-14T01:32:03;45.57;;;21.13;;
5776;SDS011;2914;42.668;23.346;2022-11-14T01:34:32;33.00;;;19.30;;
5776;SDS011;2914;42.668;23.346;2022-11-14T01:37:01;33.33;;;18.50;;
5776;SDS011;2914;42.668;23.346;2022-11-14T01:39:30;27.37;;;16.03;;
5776;SDS011;2914;42.668;23.346;2022-11-14T01:42:00;31.10;;;18.20;;
5776;SDS011;2914;42.668;23.346;2022-11-14T01:44:40;38.53;;;19.17;;
5776;SDS011;2914;42.668;23.346;2022-11-14T01:47:12;36.10;;;18.77;;
5776;SDS011;2914;42.668;23.346;2022-11-14T01:49:52;45.43;;;20.20;;
5776;SDS011;2914;42.668;23.346;2022-11-14T01:52:24;40.50;;;19.33;;
5776;SDS011;2914;42.668;23.346;2022-11-14T01:54:58;35.10;;;18.00;;
5776;SDS011;2914;42.668;23.346;2022-11-14T01:57:29;37.40;;;18.67;;
5776;SDS011;2914;42.668;23.346;2022-11-14T02:00:03;36.87;;;19.80;;
5776;SDS011;2914;42.668;23.346;2022-11-14T02:02:34;37.07;;;19.00;;
5776;SDS011;2914;42.668;23.346;2022-11-14T02:05:06;40.07;;;20.43;;
5776;SDS011;2914;42.668;23.346;2022-11-14T02:07:39;44.37;;;22.13;;
5776;SDS011;2914;42.668;23.346;2022-11-14T02:10:09;51.97;;;23.50;;
5776;SDS011;2914;42.668;23.346;2022-11-14T02:12:43;47.33;;;23.67;;
5776;SDS011;2914;42.668;23.346;2022-11-14T02:15:15;45.70;;;22.87;;
5776;SDS011;2914;42.668;23.346;2022-11-14T02:17:45;57.60;;;26.20;;
5776;SDS011;2914;42.668;23.346;2022-11-14T02:20:23;70.87;;;28.40;;
5776;SDS011;2914;42.668;23.346;2022-11-14T02:22:54;62.13;;;26.07;;
5776;SDS011;2914;42.668;23.346;2022-11-14T02:25:23;68.13;;;28.90;;
5776;SDS011;2914;42.668;23.346;2022-11-14T02:27:53;63.90;;;30.53;;
5776;SDS011;2914;42.668;23.346;2022-11-14T02:30:36;67.87;;;31.90;;
5776;SDS011;2914;42.668;23.346;2022-11-14T02:33:06;51.30;;;25.97;;
5776;SDS011;2914;42.668;23.346;2022-11-14T02:35:35;47.20;;;25.20;;
5776;SDS011;2914;42.668;23.346;2022-11-14T02:38:04;49.30;;;24.30;;
5776;SDS011;2914;42.668;23.346;2022-11-14T02:40:37;50.93;;;27.03;;
5776;SDS011;2914;42.668;23.346;2022-11-14T02:43:06;62.97;;;25.70;;
5776;SDS011;2914;42.668;23.346;2022-11-14T02:45:35;60.37;;;27.80;;
5776;SDS011;2914;42.668;23.346;2022-11-14T02:48:05;65.13;;;31.47;;
5776;SDS011;2914;42.668;23.346;2022-11-14T02:50:36;62.90;;;29.60;;
5776;SDS011;2914;42.668;23.346;2022-11-14T02:53:05;62.67;;;29.83;;
5776;SDS011;2914;42.668;23.346;2022-11-14T02:55:34;74.73;;;32.33;;
5776;SDS011;2914;42.668;23.346;2022-11-14T02:58:05;63.60;;;30.37;;
5776;SDS011;2914;42.668;23.346;2022-11-14T03:00:34;73.07;;;30.20;;
5776;SDS011;2914;42.668;23.346;2022-11-14T03:03:03;67.00;;;32.67;;
5776;SDS011;2914;42.668;23.346;2022-11-14T03:05:33;63.07;;;29.20;;
5776;SDS011;2914;42.668;23.346;2022-11-14T03:08:02;63.63;;;29.53;;
5776;SDS011;2914;42.668;23.346;2022-11-14T03:10:33;82.73;;;28.63;;
5776;SDS011;2914;42.668;23.346;2022-11-14T03:13:11;66.93;;;27.00;;
5776;SDS011;2914;42.668;23.346;2022-11-14T03:15:40;83.10;;;29.57;;
5776;SDS011;2914;42.668;23.346;2022-11-14T03:18:09;61.13;;;28.17;;
5776;SDS011;2914;42.668;23.346;2022-11-14T03:20:38;59.00;;;27.50;;
5776;SDS011;2914;42.668;23.346;2022-11-14T03:23:07;56.53;;;26.77;;
5776;SDS011;2914;42.668;23.346;2022-11-14T03:28:12;109.03;;;30.60;;
5776;SDS011;2914;42.668;23.346;2022-11-14T03:30:41;70.57;;;29.00;;
5776;SDS011;2914;42.668;23.346;2022-11-14T03:33:12;80.10;;;30.27;;
5776;SDS011;2914;42.668;23.346;2022-11-14T03:35:41;84.53;;;28.80;;
5776;SDS011;2914;42.668;23.346;2022-11-14T03:38:11;71.53;;;30.40;;
5776;SDS011;2914;42.668;23.346;2022-11-14T03:40:40;111.00;;;32.77;;
5776;SDS011;2914;42.668;23.346;2022-11-14T03:43:10;159.87;;;33.67;;
5776;SDS011;2914;42.668;23.346;2022-11-14T03:45:41;77.60;;;31.63;;
5776;SDS011;2914;42.668;23.346;2022-11-14T03:48:10;137.60;;;31.23;;
5776;SDS011;2914;42.668;23.346;2022-11-14T03:50:41;113.40;;;32.20;;
5776;SDS011;2914;42.668;23.346;2022-11-14T03:53:10;119.73;;;32.07;;
5776;SDS011;2914;42.668;23.346;2022-11-14T03:55:39;113.27;;;34.77;;
5776;SDS011;2914;42.668;23.346;2022-11-14T03:58:10;108.13;;;31.73;;
5776;SDS011;2914;42.668;23.346;2022-11-14T04:01:11;124.43;;;30.33;;
5776;SDS011;2914;42.668;23.346;2022-11-14T04:03:40;261.40;;;33.00;;
5776;SDS011;2914;42.668;23.346;2022-11-14T04:06:11;186.43;;;32.07;;
5776;SDS011;2914;42.668;23.346;2022-11-14T04:08:40;128.07;;;32.20;;
5776;SDS011;2914;42.668;23.346;2022-11-14T04:11:09;198.30;;;30.07;;
5776;SDS011;2914;42.668;23.346;2022-11-14T04:13:39;140.67;;;31.67;;
5776;SDS011;2914;42.668;23.346;2022-11-14T04:16:10;138.63;;;29.70;;
5776;SDS011;2914;42.668;23.346;2022-11-14T04:18:41;209.33;;;30.67;;
5776;SDS011;2914;42.668;23.346;2022-11-14T04:21:10;200.97;;;31.07;;
5776;SDS011;2914;42.668;23.346;2022-11-14T04:23:40;110.97;;;28.40;;
5776;SDS011;2914;42.668;23.346;2022-11-14T04:26:09;111.80;;;27.63;;
5776;SDS011;2914;42.668;23.346;2022-11-14T04:28:38;60.67;;;26.10;;
5776;SDS011;2914;42.668;23.346;2022-11-14T04:31:07;144.03;;;26.67;;
5776;SDS011;2914;42.668;23.346;2022-11-14T04:33:40;107.90;;;23.60;;
5776;SDS011;2914;42.668;23.346;2022-11-14T04:36:10;80.13;;;27.10;;
5776;SDS011;2914;42.668;23.346;2022-11-14T04:38:40;60.97;;;24.50;;
5776;SDS011;2914;42.668;23.346;2022-11-14T04:41:09;61.10;;;26.73;;
5776;SDS011;2914;42.668;23.346;2022-11-14T04:43:39;64.93;;;29.70;;
5776;SDS011;2914;42.668;23.346;2022-11-14T04:46:08;65.93;;;28.80;;
5776;SDS011;2914;42.668;23.346;2022-11-14T04:48:37;68.83;;;28.77;;
5776;SDS011;2914;42.668;23.346;2022-11-14T04:51:06;105.23;;;28.40;;
5776;SDS011;2914;42.668;23.346;2022-11-14T04:53:35;65.73;;;28.57;;
5776;SDS011;2914;42.668;23.346;2022-11-14T04:56:05;86.37;;;27.27;;
5776;SDS011;2914;42.668;23.346;2022-11-14T04:58:35;70.80;;;28.83;;
5776;SDS011;2914;42.668;23.346;2022-11-14T05:01:13;59.00;;;25.47;;
5776;SDS011;2914;42.668;23.346;2022-11-14T05:03:42;96.93;;;28.07;;
5776;SDS011;2914;42.668;23.346;2022-11-14T05:06:12;77.63;;;24.30;;
5776;SDS011;2914;42.668;23.346;2022-11-14T05:08:41;79.07;;;22.83;;
5776;SDS011;2914;42.668;23.346;2022-11-14T05:11:14;62.50;;;23.70;;
5776;SDS011;2914;42.668;23.346;2022-11-14T05:13:56;139.33;;;25.93;;
5776;SDS011;2914;42.668;23.346;2022-11-14T05:16:25;57.57;;;22.40;;
5776;SDS011;2914;42.668;23.346;2022-11-14T05:18:54;66.33;;;24.23;;
5776;SDS011;2914;42.668;23.346;2022-11-14T05:21:23;56.93;;;23.40;;
5776;SDS011;2914;42.668;23.346;2022-11-14T05:23:52;55.13;;;25.13;;
5776;SDS011;2914;42.668;23.346;2022-11-14T05:26:21;56.53;;;25.20;;
5776;SDS011;2914;42.668;23.346;2022-11-14T05:28:51;61.30;;;24.20;;
5776;SDS011;2914;42.668;23.346;2022-11-14T05:31:20;43.83;;;21.63;;
5776;SDS011;2914;42.668;23.346;2022-11-14T05:33:49;51.50;;;20.93;;
5776;SDS011;2914;42.668;23.346;2022-11-14T05:36:18;58.27;;;22.33;;
5776;SDS011;2914;42.668;23.346;2022-11-14T05:38:47;56.47;;;20.73;;
5776;SDS011;2914;42.668;23.346;2022-11-14T05:41:17;59.53;;;20.23;;
5776;SDS011;2914;42.668;23.346;2022-11-14T05:43:46;79.90;;;20.50;;
5776;SDS011;2914;42.668;23.346;2022-11-14T05:46:15;60.73;;;21.40;;
5776;SDS011;2914;42.668;23.346;2022-11-14T05:48:44;60.30;;;22.07;;
5776;SDS011;2914;42.668;23.346;2022-11-14T05:51:14;55.73;;;21.80;;
5776;SDS011;2914;42.668;23.346;2022-11-14T05:53:43;57.83;;;21.93;;
5776;SDS011;2914;42.668;23.346;2022-11-14T05:56:12;40.50;;;19.97;;
5776;SDS011;2914;42.668;23.346;2022-11-14T05:58:41;33.50;;;18.83;;
5776;SDS011;2914;42.668;23.346;2022-11-14T06:01:25;38.10;;;19.33;;
5776;SDS011;2914;42.668;23.346;2022-11-14T06:03:56;33.27;;;17.30;;
5776;SDS011;2914;42.668;23.346;2022-11-14T06:06:25;47.47;;;17.80;;
5776;SDS011;2914;42.668;23.346;2022-11-14T06:08:54;55.30;;;17.90;;
5776;SDS011;2914;42.668;23.346;2022-11-14T06:11:23;38.30;;;18.10;;
5776;SDS011;2914;42.668;23.346;2022-11-14T06:13:52;53.83;;;18.93;;
5776;SDS011;2914;42.668;23.346;2022-11-14T06:16:21;47.20;;;18.53;;
5776;SDS011;2914;42.668;23.346;2022-11-14T06:18:52;41.87;;;19.03;;
5776;SDS011;2914;42.668;23.346;2022-11-14T06:21:22;40.80;;;19.43;;
5776;SDS011;2914;42.668;23.346;2022-11-14T06:23:52;49.73;;;18.93;;
5776;SDS011;2914;42.668;23.346;2022-11-14T06:26:22;38.97;;;19.20;;
5776;SDS011;2914;42.668;23.346;2022-11-14T06:28:52;51.00;;;21.60;;
5776;SDS011;2914;42.668;23.346;2022-11-14T06:31:21;44.63;;;19.03;;
5776;SDS011;2914;42.668;23.346;2022-11-14T06:33:53;49.63;;;20.10;;
5776;SDS011;2914;42.668;23.346;2022-11-14T06:36:23;45.97;;;20.93;;
5776;SDS011;2914;42.668;23.346;2022-11-14T06:38:53;62.07;;;21.10;;
5776;SDS011;2914;42.668;23.346;2022-11-14T06:41:31;58.37;;;20.97;;
5776;SDS011;2914;42.668;23.346;2022-11-14T06:44:02;44.83;;;20.87;;
5776;SDS011;2914;42.668;23.346;2022-11-14T06:46:32;56.20;;;21.67;;
5776;SDS011;2914;42.668;23.346;2022-11-14T06:49:02;45.73;;;19.53;;
5776;SDS011;2914;42.668;23.346;2022-11-14T06:51:31;44.73;;;20.00;;
5776;SDS011;2914;42.668;23.346;2022-11-14T06:54:19;43.20;;;19.50;;
5776;SDS011;2914;42.668;23.346;2022-11-14T06:56:48;38.07;;;19.73;;
5776;SDS011;2914;42.668;23.346;2022-11-14T06:59:18;37.13;;;18.30;;
5776;SDS011;2914;42.668;23.346;2022-11-14T07:02:02;36.73;;;19.63;;
5776;SDS011;2914;42.668;23.346;2022-11-14T07:04:31;34.20;;;17.70;;
5776;SDS011;2914;42.668;23.346;2022-11-14T07:07:15;42.87;;;20.13;;
5776;SDS011;2914;42.668;23.346;2022-11-14T07:09:44;37.83;;;20.47;;
5776;SDS011;2914;42.668;23.346;2022-11-14T07:12:13;43.07;;;21.40;;
5776;SDS011;2914;42.668;23.346;2022-11-14T07:14:45;46.50;;;19.60;;
5776;SDS011;2914;42.668;23.346;2022-11-14T07:17:16;37.60;;;18.70;;
5776;SDS011;2914;42.668;23.346;2022-11-14T07:19:50;50.10;;;21.63;;
5776;SDS011;2914;42.668;23.346;2022-11-14T07:22:20;65.50;;;22.00;;
5776;SDS011;2914;42.668;23.346;2022-11-14T07:24:49;48.53;;;22.27;;
5776;SDS011;2914;42.668;23.346;2022-11-14T07:27:18;45.00;;;20.60;;
5776;SDS011;2914;42.668;23.346;2022-11-14T07:29:47;50.13;;;20.70;;
5776;SDS011;2914;42.668;23.346;2022-11-14T07:32:16;45.90;;;20.63;;
5776;SDS011;2914;42.668;23.346;2022-11-14T07:34:48;46.90;;;22.20;;
5776;SDS011;2914;42.668;23.346;2022-11-14T07:37:26;58.03;;;21.70;;
5776;SDS011;2914;42.668;23.346;2022-11-14T07:40:11;47.60;;;21.07;;
5776;SDS011;2914;42.668;23.346;2022-11-14T07:42:41;60.17;;;20.97;;
5776;SDS011;2914;42.668;23.346;2022-11-14T07:45:12;48.07;;;22.40;;
5776;SDS011;2914;42.668;23.346;2022-11-14T07:47:42;47.07;;;22.80;;
5776;SDS011;2914;42.668;23.346;2022-11-14T07:50:13;52.33;;;23.40;;
5776;SDS011;2914;42.668;23.346;2022-11-14T07:52:42;52.27;;;22.07;;
5776;SDS011;2914;42.668;23.346;2022-11-14T07:55:14;40.63;;;21.03;;
5776;SDS011;2914;42.668;23.346;2022-11-14T07:57:58;46.20;;;22.50;;
5776;SDS011;2914;42.668;23.346;2022-11-14T08:00:27;47.60;;;21.70;;
5776;SDS011;2914;42.668;23.346;2022-11-14T08:02:57;62.03;;;22.93;;
5776;SDS011;2914;42.668;23.346;2022-11-14T08:05:35;48.93;;;24.10;;
5776;SDS011;2914;42.668;23.346;2022-11-14T08:08:04;44.40;;;23.97;;
5776;SDS011;2914;42.668;23.346;2022-11-14T08:10:34;51.53;;;23.90;;
5776;SDS011;2914;42.668;23.346;2022-11-14T08:13:03;41.40;;;22.03;;
5776;SDS011;2914;42.668;23.346;2022-11-14T08:15:39;44.13;;;22.80;;
5776;SDS011;2914;42.668;23.346;2022-11-14T08:18:08;47.70;;;23.57;;
5776;SDS011;2914;42.668;23.346;2022-11-14T08:20:37;60.53;;;23.50;;
5776;SDS011;2914;42.668;23.346;2022-11-14T08:23:07;46.80;;;23.20;;
5776;SDS011;2914;42.668;23.346;2022-11-14T08:25:36;49.40;;;24.10;;
5776;SDS011;2914;42.668;23.346;2022-11-14T08:28:06;44.53;;;22.87;;
5776;SDS011;2914;42.668;23.346;2022-11-14T08:30:35;53.90;;;25.63;;
5776;SDS011;2914;42.668;23.346;2022-11-14T08:33:04;56.10;;;24.43;;
5776;SDS011;2914;42.668;23.346;2022-11-14T08:35:39;44.43;;;24.00;;
5776;SDS011;2914;42.668;23.346;2022-11-14T08:38:26;49.40;;;23.50;;
5776;SDS011;2914;42.668;23.346;2022-11-14T08:40:57;53.07;;;23.57;;
5776;SDS011;2914;42.668;23.346;2022-11-14T08:43:26;72.10;;;27.03;;
5776;SDS011;2914;42.668;23.346;2022-11-14T08:45:56;53.07;;;25.20;;
5776;SDS011;2914;42.668;23.346;2022-11-14T08:48:26;56.47;;;26.97;;
5776;SDS011;2914;42.668;23.346;2022-11-14T08:50:56;50.83;;;25.40;;
5776;SDS011;2914;42.668;23.346;2022-11-14T08:53:26;61.40;;;27.87;;
5776;SDS011;2914;42.668;23.346;2022-11-14T08:55:56;46.87;;;25.07;;
5776;SDS011;2914;42.668;23.346;2022-11-14T08:58:27;54.97;;;25.73;;
5776;SDS011;2914;42.668;23.346;2022-11-14T09:01:06;46.63;;;25.90;;
5776;SDS011;2914;42.668;23.346;2022-11-14T09:03:36;49.73;;;24.53;;
5776;SDS011;2914;42.668;23.346;2022-11-14T09:06:05;53.70;;;26.00;;
5776;SDS011;2914;42.668;23.346;2022-11-14T09:08:34;56.07;;;27.60;;
5776;SDS011;2914;42.668;23.346;2022-11-14T09:11:04;58.93;;;27.27;;
5776;SDS011;2914;42.668;23.346;2022-11-14T09:13:33;74.37;;;29.07;;
5776;SDS011;2914;42.668;23.346;2022-11-14T09:16:04;55.90;;;28.67;;
5776;SDS011;2914;42.668;23.346;2022-11-14T09:18:35;50.37;;;26.40;;
5776;SDS011;2914;42.668;23.346;2022-11-14T09:21:06;50.50;;;27.00;;
5776;SDS011;2914;42.668;23.346;2022-11-14T09:23:37;65.43;;;30.43;;
5776;SDS011;2914;42.668;23.346;2022-11-14T09:26:06;55.97;;;28.63;;
5776;SDS011;2914;42.668;23.346;2022-11-14T09:28:36;54.50;;;26.27;;
5776;SDS011;2914;42.668;23.346;2022-11-14T09:31:06;62.73;;;29.40;;
5776;SDS011;2914;42.668;23.346;2022-11-14T09:33:37;64.23;;;27.90;;
5776;SDS011;2914;42.668;23.346;2022-11-14T09:36:08;52.83;;;27.00;;
5776;SDS011;2914;42.668;23.346;2022-11-14T09:38:41;65.50;;;28.67;;
5776;SDS011;2914;42.668;23.346;2022-11-14T09:41:16;55.33;;;27.30;;
5776;SDS011;2914;42.668;23.346;2022-11-14T09:43:58;60.40;;;29.50;;
5776;SDS011;2914;42.668;23.346;2022-11-14T09:46:52;60.17;;;27.13;;
5776;SDS011;2914;42.668;23.346;2022-11-14T09:49:26;65.27;;;30.10;;
5776;SDS011;2914;42.668;23.346;2022-11-14T09:51:59;57.77;;;29.27;;
5776;SDS011;2914;42.668;23.346;2022-11-14T09:54:35;67.50;;;28.70;;
5776;SDS011;2914;42.668;23.346;2022-11-14T09:57:34;72.03;;;31.23;;
5776;SDS011;2914;42.668;23.346;2022-11-14T10:00:10;67.00;;;31.70;;
5776;SDS011;2914;42.668;23.346;2022-11-14T10:02:47;94.80;;;32.00;;
5776;SDS011;2914;42.668;23.346;2022-11-14T10:05:23;72.90;;;31.03;;
5776;SDS011;2914;42.668;23.346;2022-11-14T10:08:18;98.47;;;31.40;;
5776;SDS011;2914;42.668;23.346;2022-11-14T10:10:53;64.20;;;28.20;;
5776;SDS011;2914;42.668;23.346;2022-11-14T10:13:29;59.83;;;29.23;;
5776;SDS011;2914;42.668;23.346;2022-11-14T10:16:09;74.20;;;27.63;;
5776;SDS011;2914;42.668;23.346;2022-11-14T10:18:43;76.60;;;30.50;;
5776;SDS011;2914;42.668;23.346;2022-11-14T10:21:25;68.50;;;30.00;;
5776;SDS011;2914;42.668;23.346;2022-11-14T10:24:04;66.10;;;30.27;;
5776;SDS011;2914;42.668;23.346;2022-11-14T10:26:36;63.53;;;31.57;;
5776;SDS011;2914;42.668;23.346;2022-11-14T10:32:09;75.13;;;30.10;;
5776;SDS011;2914;42.668;23.346;2022-11-14T10:34:41;58.97;;;28.17;;
5776;SDS011;2914;42.668;23.346;2022-11-14T10:37:14;65.80;;;30.60;;
5776;SDS011;2914;42.668;23.346;2022-11-14T10:39:47;68.00;;;31.80;;
5776;SDS011;2914;42.668;23.346;2022-11-14T10:42:21;73.27;;;31.17;;
5776;SDS011;2914;42.668;23.346;2022-11-14T10:44:55;68.23;;;29.57;;
5776;SDS011;2914;42.668;23.346;2022-11-14T10:47:25;69.53;;;29.93;;
5776;SDS011;2914;42.668;23.346;2022-11-14T10:49:58;64.30;;;29.73;;
5776;SDS011;2914;42.668;23.346;2022-11-14T10:52:38;62.27;;;28.50;;
5776;SDS011;2914;42.668;23.346;2022-11-14T10:55:06;64.07;;;29.57;;
5776;SDS011;2914;42.668;23.346;2022-11-14T10:57:46;62.40;;;29.60;;
5776;SDS011;2914;42.668;23.346;2022-11-14T11:00:17;61.67;;;29.23;;
5776;SDS011;2914;42.668;23.346;2022-11-14T11:02:55;57.30;;;26.93;;
5776;SDS011;2914;42.668;23.346;2022-11-14T11:05:28;55.87;;;29.10;;
5776;SDS011;2914;42.668;23.346;2022-11-14T11:08:07;51.03;;;26.97;;
5776;SDS011;2914;42.668;23.346;2022-11-14T11:10:57;57.47;;;28.10;;
5776;SDS011;2914;42.668;23.346;2022-11-14T11:13:49;55.97;;;30.17;;
5776;SDS011;2914;42.668;23.346;2022-11-14T11:16:27;74.73;;;28.03;;
5776;SDS011;2914;42.668;23.346;2022-11-14T11:19:12;59.93;;;28.93;;
5776;SDS011;2914;42.668;23.346;2022-11-14T11:21:52;61.33;;;29.53;;
5776;SDS011;2914;42.668;23.346;2022-11-14T11:24:30;55.83;;;29.90;;
5776;SDS011;2914;42.668;23.346;2022-11-14T11:30:05;64.93;;;29.60;;
5776;SDS011;2914;42.668;23.346;2022-11-14T11:32:37;68.90;;;32.00;;
5776;SDS011;2914;42.668;23.346;2022-11-14T11:35:10;84.03;;;34.10;;
5776;SDS011;2914;42.668;23.346;2022-11-14T11:40:18;75.67;;;35.07;;
5776;SDS011;2914;42.668;23.346;2022-11-14T11:42:50;75.93;;;36.70;;
5776;SDS011;2914;42.668;23.346;2022-11-14T11:45:22;87.10;;;38.53;;
5776;SDS011;2914;42.668;23.346;2022-11-14T11:47:53;82.13;;;38.40;;
5776;SDS011;2914;42.668;23.346;2022-11-14T11:50:26;80.47;;;40.03;;
5776;SDS011;2914;42.668;23.346;2022-11-14T11:52:59;81.47;;;39.00;;
5776;SDS011;2914;42.668;23.346;2022-11-14T11:55:32;89.27;;;39.03;;
5776;SDS011;2914;42.668;23.346;2022-11-14T11:58:04;84.07;;;40.50;;
5776;SDS011;2914;42.668;23.346;2022-11-14T12:00:37;103.03;;;40.10;;
5776;SDS011;2914;42.668;23.346;2022-11-14T12:03:09;95.47;;;40.70;;
5776;SDS011;2914;42.668;23.346;2022-11-14T12:05:43;99.53;;;42.07;;
5776;SDS011;2914;42.668;23.346;2022-11-14T12:08:25;84.03;;;38.80;;
5776;SDS011;2914;42.668;23.346;2022-11-14T12:10:55;87.40;;;37.90;;
5776;SDS011;2914;42.668;23.346;2022-11-14T12:13:41;67.07;;;36.97;;
5776;SDS011;2914;42.668;23.346;2022-11-14T12:16:38;86.83;;;40.50;;
5776;SDS011;2914;42.668;23.346;2022-11-14T12:19:35;86.97;;;39.43;;
5776;SDS011;2914;42.668;23.346;2022-11-14T12:22:17;86.37;;;39.37;;
5776;SDS011;2914;42.668;23.346;2022-11-14T12:24:55;89.77;;;40.20;;
5776;SDS011;2914;42.668;23.346;2022-11-14T12:27:40;87.13;;;39.77;;
5776;SDS011;2914;42.668;23.346;2022-11-14T12:30:14;77.20;;;38.27;;
5776;SDS011;2914;42.668;23.346;2022-11-14T12:32:47;93.67;;;41.40;;
5776;SDS011;2914;42.668;23.346;2022-11-14T12:35:20;87.40;;;40.63;;
5776;SDS011;2914;42.668;23.346;2022-11-14T12:37:52;82.80;;;38.90;;
5776;SDS011;2914;42.668;23.346;2022-11-14T12:40:24;88.37;;;40.67;;
5776;SDS011;2914;42.668;23.346;2022-11-14T12:42:57;93.77;;;41.20;;
5776;SDS011;2914;42.668;23.346;2022-11-14T12:48:35;73.90;;;37.60;;
5776;SDS011;2914;42.668;23.346;2022-11-14T12:51:46;93.17;;;37.90;;
5776;SDS011;2914;42.668;23.346;2022-11-14T12:53:54;88.47;;;41.63;;
5776;SDS011;2914;42.668;23.346;2022-11-14T12:59:25;96.57;;;40.30;;
5776;SDS011;2914;42.668;23.346;2022-11-14T13:02:03;87.93;;;41.03;;
5776;SDS011;2914;42.668;23.346;2022-11-14T13:04:39;98.40;;;41.93;;
5776;SDS011;2914;42.668;23.346;2022-11-14T13:07:15;85.20;;;39.27;;
5776;SDS011;2914;42.668;23.346;2022-11-14T13:12:56;85.80;;;39.10;;
5776;SDS011;2914;42.668;23.346;2022-11-14T13:15:49;86.47;;;40.20;;
5776;SDS011;2914;42.668;23.346;2022-11-14T13:18:48;76.40;;;40.33;;
5776;SDS011;2914;42.668;23.346;2022-11-14T13:21:38;83.37;;;39.70;;
5776;SDS011;2914;42.668;23.346;2022-11-14T13:24:27;82.57;;;39.27;;
5776;SDS011;2914;42.668;23.346;2022-11-14T13:27:23;106.33;;;40.30;;
5776;SDS011;2914;42.668;23.346;2022-11-14T13:29:52;86.90;;;41.87;;
5776;SDS011;2914;42.668;23.346;2022-11-14T13:35:56;82.83;;;39.10;;
5776;SDS011;2914;42.668;23.346;2022-11-14T13:48:34;123.90;;;43.10;;
5776;SDS011;2914;42.668;23.346;2022-11-14T13:51:16;78.47;;;39.67;;
5776;SDS011;2914;42.668;23.346;2022-11-14T13:53:47;99.20;;;41.67;;
5776;SDS011;2914;42.668;23.346;2022-11-14T13:56:24;83.47;;;39.90;;
5776;SDS011;2914;42.668;23.346;2022-11-14T13:59:02;97.97;;;42.70;;
5776;SDS011;2914;42.668;23.346;2022-11-14T14:01:43;87.97;;;42.10;;
5776;SDS011;2914;42.668;23.346;2022-11-14T14:04:21;97.13;;;42.70;;
5776;SDS011;2914;42.668;23.346;2022-11-14T14:06:56;94.30;;;42.60;;
5776;SDS011;2914;42.668;23.346;2022-11-14T14:09:31;93.97;;;42.20;;
5776;SDS011;2914;42.668;23.346;2022-11-14T14:12:41;91.53;;;42.40;;
5776;SDS011;2914;42.668;23.346;2022-11-14T14:15:21;86.83;;;41.63;;
5776;SDS011;2914;42.668;23.346;2022-11-14T14:18:04;98.40;;;42.00;;
5776;SDS011;2914;42.668;23.346;2022-11-14T14:20:38;116.77;;;45.77;;
5776;SDS011;2914;42.668;23.346;2022-11-14T14:23:22;93.63;;;41.90;;
5776;SDS011;2914;42.668;23.346;2022-11-14T14:25:58;99.60;;;42.97;;
5776;SDS011;2914;42.668;23.346;2022-11-14T14:28:33;109.23;;;43.13;;
5776;SDS011;2914;42.668;23.346;2022-11-14T14:31:09;110.70;;;46.30;;
5776;SDS011;2914;42.668;23.346;2022-11-14T14:33:41;125.40;;;45.97;;
5776;SDS011;2914;42.668;23.346;2022-11-14T14:36:19;115.43;;;46.70;;
5776;SDS011;2914;42.668;23.346;2022-11-14T14:38:50;122.20;;;50.80;;
5776;SDS011;2914;42.668;23.346;2022-11-14T14:41:34;108.20;;;47.17;;
5776;SDS011;2914;42.668;23.346;2022-11-14T14:44:04;107.27;;;49.17;;
5776;SDS011;2914;42.668;23.346;2022-11-14T14:46:41;132.57;;;51.40;;
5776;SDS011;2914;42.668;23.346;2022-11-14T14:49:20;127.87;;;52.80;;
5776;SDS011;2914;42.668;23.346;2022-11-14T14:51:52;119.77;;;51.00;;
5776;SDS011;2914;42.668;23.346;2022-11-14T14:54:21;109.10;;;48.87;;
5776;SDS011;2914;42.668;23.346;2022-11-14T14:56:53;112.07;;;49.50;;
5776;SDS011;2914;42.668;23.346;2022-11-14T14:59:25;112.93;;;49.60;;
5776;SDS011;2914;42.668;23.346;2022-11-14T15:01:56;113.13;;;49.47;;
5776;SDS011;2914;42.668;23.346;2022-11-14T15:04:28;113.47;;;48.63;;
5776;SDS011;2914;42.668;23.346;2022-11-14T15:06:59;109.43;;;45.17;;
5776;SDS011;2914;42.668;23.346;2022-11-14T15:09:29;78.80;;;34.67;;
5776;SDS011;2914;42.668;23.346;2022-11-14T15:11:58;81.70;;;37.73;;
5776;SDS011;2914;42.668;23.346;2022-11-14T15:14:28;150.33;;;54.10;;
5776;SDS011;2914;42.668;23.346;2022-11-14T15:17:00;123.67;;;52.73;;
5776;SDS011;2914;42.668;23.346;2022-11-14T15:19:36;132.97;;;54.17;;
5776;SDS011;2914;42.668;23.346;2022-11-14T15:22:21;134.27;;;51.77;;
5776;SDS011;2914;42.668;23.346;2022-11-14T15:25:14;118.77;;;51.70;;
5776;SDS011;2914;42.668;23.346;2022-11-14T15:27:46;120.80;;;51.43;;
5776;SDS011;2914;42.668;23.346;2022-11-14T15:30:21;131.47;;;52.63;;
5776;SDS011;2914;42.668;23.346;2022-11-14T15:32:53;128.50;;;54.43;;
5776;SDS011;2914;42.668;23.346;2022-11-14T15:35:25;145.77;;;53.87;;
5776;SDS011;2914;42.668;23.346;2022-11-14T15:38:16;141.73;;;54.27;;
5776;SDS011;2914;42.668;23.346;2022-11-14T15:43:46;133.43;;;54.97;;
5776;SDS011;2914;42.668;23.346;2022-11-14T15:46:29;143.07;;;57.40;;
5776;SDS011;2914;42.668;23.346;2022-11-14T15:49:09;131.50;;;57.07;;